Time;durP1;ratioP1;P1;durP2;ratioP2;P2;SDS_P1;SDS_P2;PMS_P1;PMS_P2;Temp;Humidity;BMP_temperature;BMP_pressure;BME280_temperature;BME280_humidity;BME280_pressure;Samples;Min_cycle;Max_cycle;Signal;HPM_P1;HPM_P2
2022/12/28 00:02:01;;;;;;;;;;;8.30;90.20;;;;;;5069542;28;20063;-86
2022/12/28 00:04:26;;;;;;;;;;;8.30;89.90;;;;;;5056642;28;20324;-87
2022/12/28 00:06:52;;;;;;;;;;;8.40;89.20;;;;;;5065391;28;19947;-86
2022/12/28 00:09:18;;;;;;;;;;;8.40;88.50;;;;;;5059798;28;20008;-86
2022/12/28 00:11:43;;;;;;;;;;;8.20;88.60;;;;;;5061691;28;20408;-86
2022/12/28 00:14:09;;;;;;;;;;;8.10;88.90;;;;;;5056644;28;20012;-87
2022/12/28 00:16:35;;;;;;;;;;;8.00;88.90;;;;;;5056634;28;19949;-87
2022/12/28 00:19:03;;;;;;;;;;;8.00;89.10;;;;;;5056751;28;19943;-87
2022/12/28 00:21:28;;;;;;;;;;;8.10;89.00;;;;;;5062587;28;19997;-86
2022/12/28 00:23:55;;;;;;;;;;;8.10;88.60;;;;;;5076915;28;19972;-86
2022/12/28 00:26:21;;;;;;;;;;;7.90;88.60;;;;;;5076928;28;20013;-86
2022/12/28 00:28:47;;;;;;;;;;;7.60;88.40;;;;;;5076496;28;20448;-86
2022/12/28 00:31:12;;;;;;;;;;;7.40;88.90;;;;;;5074668;28;19951;-86
2022/12/28 00:33:38;;;;;;;;;;;7.20;89.50;;;;;;5039594;28;19998;-86
2022/12/28 00:36:04;;;;;;;;;;;7.10;90.00;;;;;;5056644;28;20028;-86
2022/12/28 00:38:32;;;;;;;;;;;7.20;90.10;;;;;;5076359;28;19942;-86
2022/12/28 00:40:58;;;;;;;;;;;7.30;90.30;;;;;;5074419;28;19942;-86
2022/12/28 00:43:23;;;;;;;;;;;7.40;90.30;;;;;;5070649;28;20308;-86
2022/12/28 00:45:49;;;;;;;;;;;7.50;90.10;;;;;;5056062;28;20393;-86
2022/12/28 00:48:15;;;;;;;;;;;7.70;89.80;;;;;;5055956;28;19961;-86
2022/12/28 00:50:41;;;;;;;;;;;7.80;89.40;;;;;;5055882;28;19945;-87
2022/12/28 00:53:06;;;;;;;;;;;7.70;89.00;;;;;;5073662;28;20381;-86
2022/12/28 00:55:32;;;;;;;;;;;7.80;88.80;;;;;;5055993;28;20126;-86
2022/12/28 00:58:01;;;;;;;;;;;7.90;88.30;;;;;;5055849;28;19967;-86
2022/12/28 01:00:27;;;;;;;;;;;8.00;87.90;;;;;;5055925;28;19970;-86
2022/12/28 01:02:53;;;;;;;;;;;7.80;87.70;;;;;;5073944;28;19946;-86
2022/12/28 01:05:19;;;;;;;;;;;7.80;86.90;;;;;;5056027;28;19955;-86
2022/12/28 01:07:44;;;;;;;;;;;7.50;87.40;;;;;;5070522;28;20342;-86
2022/12/28 01:10:10;;;;;;;;;;;7.20;88.70;;;;;;5073872;28;19986;-86
2022/12/28 01:12:36;;;;;;;;;;;7.10;89.20;;;;;;5074737;28;20299;-86
2022/12/28 01:15:02;;;;;;;;;;;7.10;88.90;;;;;;5057983;28;20483;-86
2022/12/28 01:17:28;;;;;;;;;;;7.20;88.80;;;;;;5055649;28;20022;-86
2022/12/28 01:19:54;;;;;;;;;;;7.10;88.70;;;;;;5061506;28;19947;-86
2022/12/28 01:22:20;;;;;;;;;;;7.20;88.40;;;;;;5072429;28;19948;-86
2022/12/28 01:24:45;;;;;;;;;;;7.10;87.70;;;;;;5042541;28;20306;-86
2022/12/28 01:27:11;;;;;;;;;;;7.00;87.50;;;;;;5055461;28;20386;-86
2022/12/28 01:29:36;;;;;;;;;;;6.80;87.40;;;;;;5059333;28;19970;-86
2022/12/28 01:32:02;;;;;;;;;;;6.80;87.50;;;;;;5075401;28;19953;-86
2022/12/28 01:34:27;;;;;;;;;;;6.70;87.50;;;;;;5062939;28;19958;-86
2022/12/28 01:36:53;;;;;;;;;;;6.60;87.40;;;;;;5057792;28;19996;-86
2022/12/28 01:39:18;;;;;;;;;;;6.50;87.50;;;;;;5075236;28;19946;-86
2022/12/28 01:41:44;;;;;;;;;;;6.40;87.10;;;;;;5075202;28;19943;-86
2022/12/28 01:44:09;;;;;;;;;;;6.40;87.60;;;;;;5065521;28;19944;-86
2022/12/28 01:46:38;;;;;;;;;;;6.60;87.60;;;;;;5056188;28;19954;-86
2022/12/28 01:49:05;;;;;;;;;;;6.60;87.50;;;;;;5074952;28;19941;-87
2022/12/28 01:51:34;;;;;;;;;;;6.70;87.20;;;;;;5073651;28;20498;-86
2022/12/28 01:54:00;;;;;;;;;;;6.70;86.60;;;;;;5068875;28;20329;-86
2022/12/28 01:56:26;;;;;;;;;;;6.50;86.00;;;;;;5074925;28;20026;-86
2022/12/28 01:58:52;;;;;;;;;;;6.40;86.40;;;;;;5074841;28;20405;-86
2022/12/28 02:01:17;;;;;;;;;;;6.30;86.80;;;;;;5074781;28;19934;-86
2022/12/28 02:03:43;;;;;;;;;;;6.10;87.60;;;;;;5069762;28;19946;-86
2022/12/28 02:06:10;;;;;;;;;;;6.00;87.90;;;;;;5074743;28;20397;-86
2022/12/28 02:08:40;;;;;;;;;;;6.00;88.20;;;;;;5071495;28;20009;-86
2022/12/28 02:11:06;;;;;;;;;;;5.90;88.30;;;;;;5074627;28;20299;-86
2022/12/28 02:13:32;;;;;;;;;;;5.90;88.30;;;;;;5070294;28;19954;-86
2022/12/28 02:15:58;;;;;;;;;;;5.80;88.40;;;;;;5074237;28;20012;-87
2022/12/28 02:18:24;;;;;;;;;;;5.90;88.50;;;;;;5074736;28;20423;-86
2022/12/28 02:20:59;;;;;;;;;;;5.90;88.20;;;;;;5056024;28;19946;-86
2022/12/28 02:23:37;;;;;;;;;;;5.90;88.00;;;;;;5068703;28;20036;-86
2022/12/28 02:26:21;;;;;;;;;;;5.80;88.10;;;;;;5054374;28;20583;-86
2022/12/28 02:29:16;;;;;;;;;;;5.80;88.30;;;;;;5054177;28;19970;-86
2022/12/28 02:31:58;;;;;;;;;;;5.90;88.60;;;;;;5041008;28;19974;-86
2022/12/28 02:34:31;;;;;;;;;;;5.90;88.90;;;;;;5072733;28;19957;-86
2022/12/28 02:37:09;;;;;;;;;;;6.10;88.90;;;;;;5074077;28;19986;-87
2022/12/28 02:39:46;;;;;;;;;;;6.20;88.60;;;;;;5070917;28;19950;-86
2022/12/28 02:42:12;;;;;;;;;;;6.10;88.80;;;;;;5068069;28;20092;-86
2022/12/28 02:50:09;;;;;;;;;;;6.00;89.60;;;;;;5074173;28;19996;-86
2022/12/28 02:52:34;;;;;;;;;;;6.10;89.60;;;;;;5064542;28;19971;-86
2022/12/28 02:57:59;;;;;;;;;;;6.10;89.20;;;;;;5073737;28;19991;-86
2022/12/28 03:00:25;;;;;;;;;;;6.20;89.20;;;;;;5073639;28;20431;-86
2022/12/28 03:02:51;;;;;;;;;;;6.30;89.20;;;;;;5066117;28;20425;-86
2022/12/28 03:08:18;;;;;;;;;;;6.40;89.00;;;;;;5027635;28;20541;-87
2022/12/28 03:11:22;;;;;;;;;;;6.30;88.80;;;;;;5073446;28;19947;-86
2022/12/28 03:25:41;;;;;;;;;;;6.20;88.80;;;;;;5061090;22;19979;-86
2022/12/28 03:33:07;;;;;;;;;;;5.50;88.10;;;;;;5040915;28;20314;-86
2022/12/28 03:35:37;;;;;;;;;;;5.40;88.70;;;;;;5033253;28;19952;-86
2022/12/28 03:38:03;;;;;;;;;;;5.50;89.10;;;;;;5037420;28;19948;-86
2022/12/28 03:40:38;;;;;;;;;;;5.70;89.30;;;;;;5053088;28;19939;-86
2022/12/28 03:45:54;;;;;;;;;;;6.00;88.70;;;;;;5033152;28;19956;-86
2022/12/28 03:48:20;;;;;;;;;;;6.00;88.50;;;;;;5039996;28;20058;-86
2022/12/28 03:50:47;;;;;;;;;;;5.90;88.50;;;;;;5052917;28;19993;-86
2022/12/28 03:53:13;;;;;;;;;;;5.70;88.20;;;;;;5038898;28;19967;-86
2022/12/28 03:55:39;;;;;;;;;;;5.40;88.10;;;;;;5054855;28;20417;-86
2022/12/28 03:58:05;;;;;;;;;;;5.30;88.60;;;;;;5068534;28;19951;-86
2022/12/28 04:00:30;;;;;;;;;;;5.30;89.10;;;;;;5052878;28;19939;-86
2022/12/28 04:02:56;;;;;;;;;;;5.20;89.00;;;;;;5062261;28;20307;-86
2022/12/28 04:05:21;;;;;;;;;;;5.10;88.70;;;;;;5072893;28;20314;-86
2022/12/28 04:07:47;;;;;;;;;;;5.10;88.30;;;;;;5070396;28;19975;-86
2022/12/28 04:10:13;;;;;;;;;;;4.90;88.90;;;;;;5054068;28;20299;-86
2022/12/28 04:12:38;;;;;;;;;;;4.80;89.10;;;;;;5041677;28;19949;-86
2022/12/28 04:15:04;;;;;;;;;;;4.70;89.70;;;;;;5072607;28;19973;-86
2022/12/28 04:17:30;;;;;;;;;;;4.70;91.00;;;;;;5071302;28;19940;-86
2022/12/28 04:19:55;;;;;;;;;;;4.90;91.10;;;;;;5054742;28;19940;-86
2022/12/28 04:22:21;;;;;;;;;;;5.20;91.20;;;;;;5068122;28;19951;-86
2022/12/28 04:24:46;;;;;;;;;;;5.30;90.70;;;;;;5050133;28;19941;-86
2022/12/28 04:27:12;;;;;;;;;;;5.20;90.10;;;;;;5072661;28;19986;-86
2022/12/28 04:29:38;;;;;;;;;;;5.30;90.50;;;;;;5071277;28;19961;-86
2022/12/28 04:32:03;;;;;;;;;;;5.40;90.30;;;;;;5070627;28;19947;-86
2022/12/28 04:34:29;;;;;;;;;;;5.40;90.10;;;;;;5052740;28;20314;-86
2022/12/28 04:36:55;;;;;;;;;;;5.50;90.00;;;;;;5052519;28;20312;-86
2022/12/28 04:39:20;;;;;;;;;;;5.50;89.00;;;;;;5054649;28;20086;-86
2022/12/28 04:41:46;;;;;;;;;;;5.40;88.40;;;;;;5052508;28;19939;-86
2022/12/28 04:44:11;;;;;;;;;;;5.20;88.20;;;;;;5073561;28;19952;-86
2022/12/28 04:46:37;;;;;;;;;;;5.30;88.00;;;;;;5076486;28;19937;-86
2022/12/28 04:49:02;;;;;;;;;;;5.20;87.50;;;;;;5074769;28;19948;-86
2022/12/28 04:51:28;;;;;;;;;;;5.20;87.70;;;;;;5076165;28;19942;-86
2022/12/28 04:53:54;;;;;;;;;;;5.20;88.10;;;;;;5067030;28;20456;-86
2022/12/28 04:56:21;;;;;;;;;;;5.20;88.10;;;;;;5076021;28;19936;-86
2022/12/28 04:58:46;;;;;;;;;;;5.10;88.50;;;;;;5074799;28;20029;-86
2022/12/28 05:01:13;;;;;;;;;;;5.10;89.40;;;;;;5075958;28;20354;-86
2022/12/28 05:03:39;;;;;;;;;;;5.10;89.50;;;;;;5061255;28;19956;-86
2022/12/28 05:06:06;;;;;;;;;;;5.10;89.80;;;;;;5056184;28;19949;-86
2022/12/28 05:08:33;;;;;;;;;;;5.20;90.20;;;;;;5056043;28;20427;-86
2022/12/28 05:10:59;;;;;;;;;;;5.30;90.20;;;;;;5055837;28;19940;-86
2022/12/28 05:13:25;;;;;;;;;;;5.40;90.00;;;;;;5067624;28;20404;-86
2022/12/28 05:15:50;;;;;;;;;;;5.50;90.00;;;;;;5075596;28;19981;-86
2022/12/28 05:18:16;;;;;;;;;;;5.70;89.80;;;;;;5074308;28;19974;-86
2022/12/28 05:20:41;;;;;;;;;;;5.90;89.20;;;;;;5075441;28;20459;-86
2022/12/28 05:23:07;;;;;;;;;;;5.90;88.50;;;;;;5072961;28;20318;-86
2022/12/28 05:25:32;;;;;;;;;;;6.00;88.50;;;;;;5075584;28;19944;-87
2022/12/28 05:27:58;;;;;;;;;;;6.30;88.00;;;;;;5074088;28;19966;-87
2022/12/28 05:30:23;;;;;;;;;;;6.40;86.60;;;;;;5075413;28;20382;-86
2022/12/28 05:32:49;;;;;;;;;;;6.30;86.20;;;;;;5068171;28;19952;-86
2022/12/28 05:35:14;;;;;;;;;;;6.10;86.80;;;;;;5055341;28;19947;-86
2022/12/28 05:37:40;;;;;;;;;;;6.10;87.20;;;;;;5054873;28;19946;-86
2022/12/28 05:40:06;;;;;;;;;;;6.10;87.50;;;;;;5074035;28;19936;-86
2022/12/28 05:42:31;;;;;;;;;;;6.00;87.50;;;;;;5070694;28;19945;-86
2022/12/28 05:44:57;;;;;;;;;;;6.10;87.50;;;;;;5055141;28;19946;-86
2022/12/28 05:47:22;;;;;;;;;;;6.10;87.60;;;;;;5055119;28;19940;-86
2022/12/28 05:49:48;;;;;;;;;;;6.00;87.90;;;;;;5071473;28;19967;-86
2022/12/28 05:52:13;;;;;;;;;;;5.90;88.50;;;;;;5073444;28;19960;-86
2022/12/28 05:54:39;;;;;;;;;;;5.90;88.50;;;;;;5053934;28;19950;-86
2022/12/28 05:57:04;;;;;;;;;;;6.00;88.30;;;;;;5071160;28;19972;-86
2022/12/28 05:59:30;;;;;;;;;;;6.00;88.40;;;;;;5074896;28;20436;-86
2022/12/28 06:01:55;;;;;;;;;;;6.00;88.60;;;;;;5073906;28;19956;-86
2022/12/28 06:04:21;;;;;;;;;;;5.90;88.60;;;;;;5038010;28;19947;-86
2022/12/28 06:06:47;;;;;;;;;;;5.70;89.00;;;;;;5064795;28;19947;-86
2022/12/28 06:09:13;;;;;;;;;;;5.60;89.40;;;;;;5072560;28;19973;-86
2022/12/28 06:11:39;;;;;;;;;;;5.60;89.70;;;;;;5074675;28;20207;-86
2022/12/28 06:14:04;;;;;;;;;;;5.80;89.80;;;;;;5058098;28;19948;-86
2022/12/28 06:16:32;;;;;;;;;;;5.90;89.50;;;;;;5068631;28;20102;-86
2022/12/28 06:18:57;;;;;;;;;;;6.00;89.40;;;;;;5072170;28;20002;-86
2022/12/28 06:21:28;;;;;;;;;;;6.10;89.60;;;;;;5058533;28;19952;-86
2022/12/28 06:23:56;;;;;;;;;;;6.10;88.80;;;;;;5056708;28;19951;-86
2022/12/28 06:26:22;;;;;;;;;;;6.30;88.00;;;;;;5074150;28;20423;-86
2022/12/28 06:28:48;;;;;;;;;;;6.40;87.50;;;;;;5072497;28;19983;-86
2022/12/28 06:31:15;;;;;;;;;;;6.50;87.10;;;;;;5061293;28;21260;-86
2022/12/28 06:33:41;;;;;;;;;;;6.60;87.30;;;;;;5059110;28;19944;-86
2022/12/28 06:36:13;;;;;;;;;;;6.80;87.00;;;;;;5070847;28;19947;-86
2022/12/28 06:38:39;;;;;;;;;;;7.00;86.50;;;;;;5065912;28;19974;-87
2022/12/28 06:41:05;;;;;;;;;;;7.20;85.90;;;;;;5058624;28;19952;-86
2022/12/28 06:43:32;;;;;;;;;;;7.20;84.90;;;;;;5072359;28;20401;-86
2022/12/28 06:45:57;;;;;;;;;;;7.20;84.70;;;;;;5063402;28;20054;-86
2022/12/28 06:48:23;;;;;;;;;;;7.10;84.90;;;;;;5053146;28;20060;-86
2022/12/28 06:50:56;;;;;;;;;;;7.00;85.10;;;;;;5068155;28;20283;-86
2022/12/28 06:53:22;;;;;;;;;;;6.90;85.40;;;;;;5052575;28;19964;-86
2022/12/28 06:55:51;;;;;;;;;;;6.80;85.70;;;;;;5057473;28;20354;-86
2022/12/28 06:58:17;;;;;;;;;;;6.70;86.30;;;;;;5048917;28;19969;-86
2022/12/28 07:00:42;;;;;;;;;;;6.70;86.30;;;;;;5056244;28;19990;-86
2022/12/28 07:03:08;;;;;;;;;;;6.70;86.50;;;;;;5063717;28;19944;-86
2022/12/28 07:05:33;;;;;;;;;;;6.60;86.90;;;;;;5069934;28;20009;-86
2022/12/28 07:07:59;;;;;;;;;;;6.70;87.10;;;;;;5053928;28;19986;-86
2022/12/28 07:10:24;;;;;;;;;;;6.90;87.10;;;;;;5062223;28;20325;-86
2022/12/28 07:12:50;;;;;;;;;;;6.90;87.00;;;;;;5054798;28;19940;-86
2022/12/28 07:15:15;;;;;;;;;;;7.10;86.20;;;;;;5070408;28;19977;-86
2022/12/28 07:17:41;;;;;;;;;;;7.10;85.70;;;;;;5071635;28;20033;-86
2022/12/28 07:20:06;;;;;;;;;;;7.20;85.00;;;;;;5062254;28;19942;-86
2022/12/28 07:22:32;;;;;;;;;;;7.20;84.70;;;;;;5071569;28;19944;-86
2022/12/28 07:24:57;;;;;;;;;;;7.20;84.50;;;;;;5069511;28;19942;-86
2022/12/28 07:27:23;;;;;;;;;;;7.20;84.90;;;;;;5064800;28;19942;-86
2022/12/28 07:29:48;;;;;;;;;;;7.10;85.00;;;;;;5069583;28;19962;-86
2022/12/28 07:32:14;;;;;;;;;;;7.00;85.20;;;;;;5054493;28;19963;-86
2022/12/28 07:34:39;;;;;;;;;;;6.90;85.50;;;;;;5052722;28;20348;-86
2022/12/28 07:37:05;;;;;;;;;;;6.90;85.60;;;;;;5053014;28;19938;-86
2022/12/28 07:39:30;;;;;;;;;;;6.90;85.90;;;;;;5056747;28;19951;-86
2022/12/28 07:41:56;;;;;;;;;;;7.00;86.10;;;;;;5057092;28;19982;-87
2022/12/28 07:44:21;;;;;;;;;;;7.10;86.40;;;;;;5051420;28;20456;-86
2022/12/28 07:46:47;;;;;;;;;;;7.30;86.20;;;;;;5058518;28;20408;-86
2022/12/28 07:49:13;;;;;;;;;;;7.30;86.30;;;;;;5069849;28;20013;-86
2022/12/28 07:51:39;;;;;;;;;;;7.30;86.30;;;;;;5066782;28;19939;-86
2022/12/28 07:54:05;;;;;;;;;;;7.30;86.40;;;;;;5063683;28;19960;-86
2022/12/28 07:56:31;;;;;;;;;;;7.40;86.20;;;;;;5055670;28;20016;-86
2022/12/28 07:58:57;;;;;;;;;;;7.60;85.90;;;;;;5057440;28;19944;-86
2022/12/28 08:01:24;;;;;;;;;;;7.60;86.00;;;;;;5053160;28;19951;-86
2022/12/28 08:03:54;;;;;;;;;;;7.60;86.60;;;;;;5071765;28;19953;-86
2022/12/28 08:06:21;;;;;;;;;;;7.70;86.60;;;;;;5060905;28;19951;-86
2022/12/28 08:08:47;;;;;;;;;;;7.80;86.50;;;;;;5067446;28;19980;-86
2022/12/28 08:11:15;;;;;;;;;;;7.80;86.00;;;;;;5059636;28;20002;-86
2022/12/28 08:13:41;;;;;;;;;;;8.20;85.90;;;;;;5035155;28;19947;-86
2022/12/28 08:16:08;;;;;;;;;;;8.60;85.10;;;;;;5055887;28;19976;-86
2022/12/28 08:18:33;;;;;;;;;;;8.50;83.40;;;;;;5059768;28;19948;-86
2022/12/28 08:21:06;;;;;;;;;;;8.40;85.10;;;;;;5065239;28;20235;-86
2022/12/28 08:23:32;;;;;;;;;;;8.40;85.30;;;;;;5061981;28;19978;-86
2022/12/28 08:26:08;;;;;;;;;;;8.40;83.50;;;;;;5056616;28;20268;-86
2022/12/28 08:28:34;;;;;;;;;;;8.40;83.40;;;;;;5057099;28;20070;-86
2022/12/28 08:31:10;;;;;;;;;;;8.40;83.30;;;;;;5056609;28;20022;-86
2022/12/28 08:33:36;;;;;;;;;;;8.60;83.40;;;;;;5071610;28;19940;-86
2022/12/28 08:36:02;;;;;;;;;;;8.60;83.50;;;;;;5074778;28;19940;-86
2022/12/28 08:38:27;;;;;;;;;;;8.40;84.60;;;;;;5061764;28;20475;-86
2022/12/28 08:40:54;;;;;;;;;;;8.50;84.90;;;;;;5056229;28;20394;-86
2022/12/28 08:43:20;;;;;;;;;;;8.50;84.90;;;;;;5060298;28;19948;-86
2022/12/28 08:45:55;;;;;;;;;;;8.50;84.30;;;;;;5068876;28;19996;-86
2022/12/28 08:48:20;;;;;;;;;;;8.40;84.20;;;;;;5065465;28;20051;-87
2022/12/28 08:50:46;;;;;;;;;;;8.50;83.80;;;;;;5072635;28;20037;-86
2022/12/28 08:53:11;;;;;;;;;;;8.40;83.70;;;;;;5059442;28;20064;-86
2022/12/28 08:55:37;;;;;;;;;;;8.40;83.40;;;;;;5074249;28;20415;-86
2022/12/28 08:58:02;;;;;;;;;;;8.50;83.10;;;;;;5067220;28;20318;-86
2022/12/28 09:00:28;;;;;;;;;;;8.60;82.70;;;;;;5074631;28;19951;-86
2022/12/28 09:02:54;;;;;;;;;;;8.90;80.90;;;;;;5066266;28;20411;-86
2022/12/28 09:05:20;;;;;;;;;;;9.10;81.40;;;;;;5069652;28;19942;-86
2022/12/28 09:07:45;;;;;;;;;;;9.40;82.00;;;;;;5059451;28;19988;-86
2022/12/28 09:10:11;;;;;;;;;;;9.70;82.20;;;;;;5059813;28;19945;-87
2022/12/28 09:12:36;;;;;;;;;;;9.80;82.40;;;;;;5056358;28;19948;-87
2022/12/28 09:15:02;;;;;;;;;;;10.00;81.50;;;;;;5064798;28;20416;-87
2022/12/28 09:17:28;;;;;;;;;;;10.10;80.80;;;;;;5065942;28;19941;-87
2022/12/28 09:19:53;;;;;;;;;;;10.20;80.50;;;;;;5075681;28;20042;-87
2022/12/28 09:22:19;;;;;;;;;;;10.20;80.60;;;;;;5062968;28;19944;-87
2022/12/28 09:24:44;;;;;;;;;;;10.20;80.90;;;;;;5071314;28;19949;-87
2022/12/28 09:27:10;;;;;;;;;;;10.40;79.50;;;;;;5057102;28;20300;-86
2022/12/28 09:29:35;;;;;;;;;;;10.40;76.70;;;;;;5057479;28;19962;-86
2022/12/28 09:32:01;;;;;;;;;;;10.40;74.60;;;;;;5054995;28;20039;-86
2022/12/28 09:34:27;;;;;;;;;;;10.40;73.40;;;;;;5069903;28;20001;-86
2022/12/28 09:36:52;;;;;;;;;;;10.60;72.70;;;;;;5067965;28;19951;-86
2022/12/28 09:39:19;;;;;;;;;;;10.60;72.70;;;;;;5063868;28;19945;-87
2022/12/28 09:41:48;;;;;;;;;;;10.60;73.00;;;;;;5055533;28;20037;-87
2022/12/28 09:44:16;;;;;;;;;;;10.70;72.80;;;;;;5065733;28;19950;-86
2022/12/28 09:46:45;;;;;;;;;;;10.80;71.20;;;;;;5074785;28;19945;-87
2022/12/28 09:49:13;;;;;;;;;;;10.90;70.00;;;;;;5070435;28;20457;-87
2022/12/28 09:51:42;;;;;;;;;;;10.90;69.30;;;;;;5073190;28;19939;-87
2022/12/28 09:54:07;;;;;;;;;;;11.00;69.60;;;;;;5055044;28;19960;-87
2022/12/28 09:56:38;;;;;;;;;;;11.10;68.70;;;;;;5058848;28;20043;-87
2022/12/28 09:59:05;;;;;;;;;;;11.20;68.30;;;;;;5065888;28;20070;-87
2022/12/28 10:01:32;;;;;;;;;;;11.30;68.40;;;;;;5069594;28;20000;-87
2022/12/28 10:03:59;;;;;;;;;;;11.40;67.40;;;;;;5057379;28;19946;-87
2022/12/28 10:06:26;;;;;;;;;;;11.50;68.10;;;;;;5061293;28;19973;-86
2022/12/28 10:08:53;;;;;;;;;;;11.80;65.50;;;;;;5064619;28;19963;-87
2022/12/28 10:11:21;;;;;;;;;;;11.90;65.60;;;;;;5073498;28;19946;-86
2022/12/28 10:13:48;;;;;;;;;;;11.90;64.20;;;;;;5074622;28;20036;-86
2022/12/28 10:16:18;;;;;;;;;;;11.90;65.10;;;;;;5064603;28;20505;-86
2022/12/28 10:18:44;;;;;;;;;;;11.90;64.60;;;;;;5066116;28;19946;-86
2022/12/28 10:21:10;;;;;;;;;;;11.90;64.50;;;;;;5056228;28;19976;-86
2022/12/28 10:23:37;;;;;;;;;;;12.00;64.40;;;;;;5054882;28;19951;-87
2022/12/28 10:26:03;;;;;;;;;;;12.30;63.20;;;;;;5056575;28;19948;-87
2022/12/28 10:28:49;;;;;;;;;;;12.40;62.80;;;;;;5070745;28;19962;-87
2022/12/28 10:31:28;;;;;;;;;;;12.70;61.90;;;;;;5060726;28;19969;-87
2022/12/28 10:33:54;;;;;;;;;;;12.90;61.70;;;;;;5056915;28;19946;-87
2022/12/28 10:36:19;;;;;;;;;;;12.90;62.30;;;;;;5061977;28;20467;-87
2022/12/28 10:38:49;;;;;;;;;;;12.80;62.00;;;;;;5057046;28;19946;-87
2022/12/28 10:41:15;;;;;;;;;;;12.80;61.80;;;;;;5070738;28;19950;-87
2022/12/28 10:43:43;;;;;;;;;;;12.80;61.00;;;;;;5068827;28;20453;-87
2022/12/28 10:46:35;;;;;;;;;;;12.90;61.20;;;;;;5067389;28;20096;-86
2022/12/28 10:49:02;;;;;;;;;;;12.90;61.30;;;;;;5067559;28;19978;-87
2022/12/28 10:51:28;;;;;;;;;;;12.90;61.30;;;;;;5064752;28;19950;-86
2022/12/28 10:53:55;;;;;;;;;;;12.90;62.40;;;;;;5070573;28;20010;-87
2022/12/28 10:56:24;;;;;;;;;;;12.90;61.70;;;;;;5061767;28;19971;-87
2022/12/28 10:58:51;;;;;;;;;;;12.90;60.70;;;;;;5072818;28;19938;-86
2022/12/28 11:01:19;;;;;;;;;;;13.00;59.70;;;;;;5055508;28;19998;-87
2022/12/28 11:03:56;;;;;;;;;;;13.20;58.80;;;;;;5052796;28;19948;-87
2022/12/28 11:06:23;;;;;;;;;;;13.30;58.80;;;;;;5060588;28;20325;-87
2022/12/28 11:09:07;;;;;;;;;;;13.50;57.00;;;;;;5063812;28;19966;-87
2022/12/28 11:11:33;;;;;;;;;;;13.60;55.40;;;;;;5053575;28;19937;-87
2022/12/28 11:16:30;;;;;;;;;;;13.70;55.50;;;;;;5058244;22;20482;-87
2022/12/28 11:18:56;;;;;;;;;;;13.90;56.30;;;;;;5048004;28;20117;-87
2022/12/28 11:21:21;;;;;;;;;;;14.00;55.50;;;;;;5049222;28;19974;-87
2022/12/28 11:23:48;;;;;;;;;;;14.10;53.70;;;;;;5043752;28;19946;-87
2022/12/28 11:26:13;;;;;;;;;;;14.10;53.50;;;;;;5031872;28;19963;-87
2022/12/28 11:28:43;;;;;;;;;;;14.00;53.90;;;;;;5048251;28;20463;-87
2022/12/28 11:31:22;;;;;;;;;;;13.90;54.40;;;;;;5047677;28;19944;-86
2022/12/28 11:33:50;;;;;;;;;;;13.80;55.10;;;;;;5045099;28;19946;-86
2022/12/28 11:36:24;;;;;;;;;;;13.90;54.90;;;;;;5048048;28;19994;-86
2022/12/28 11:38:50;;;;;;;;;;;14.40;53.20;;;;;;5043394;28;19948;-87
2022/12/28 11:41:22;;;;;;;;;;;14.60;53.50;;;;;;5052637;28;19954;-87
2022/12/28 11:43:48;;;;;;;;;;;15.10;51.30;;;;;;5053128;28;19947;-87
2022/12/28 11:46:20;;;;;;;;;;;15.70;50.10;;;;;;5052444;28;19959;-87
2022/12/28 11:49:21;;;;;;;;;;;16.40;47.80;;;;;;5052200;28;20054;-87
2022/12/28 11:52:07;;;;;;;;;;;17.20;45.80;;;;;;5035125;28;20539;-87
2022/12/28 11:54:37;;;;;;;;;;;17.80;43.90;;;;;;5050729;28;19956;-87
2022/12/28 11:57:02;;;;;;;;;;;18.00;43.40;;;;;;5052355;28;19949;-87
2022/12/28 11:59:33;;;;;;;;;;;18.00;44.00;;;;;;5052105;28;19948;-87
2022/12/28 12:02:04;;;;;;;;;;;17.90;43.50;;;;;;5052833;28;19992;-87
2022/12/28 12:04:30;;;;;;;;;;;17.50;44.50;;;;;;5052899;28;19963;-87
2022/12/28 12:07:00;;;;;;;;;;;17.30;45.00;;;;;;5052107;28;19947;-87
2022/12/28 12:09:29;;;;;;;;;;;18.00;44.30;;;;;;5051357;28;20009;-87
2022/12/28 12:11:57;;;;;;;;;;;18.80;42.10;;;;;;5049573;28;19948;-87
2022/12/28 12:14:25;;;;;;;;;;;19.70;39.40;;;;;;5041395;28;19972;-87
2022/12/28 12:16:54;;;;;;;;;;;20.20;38.90;;;;;;5033135;28;20421;-87
2022/12/28 12:19:22;;;;;;;;;;;20.50;37.80;;;;;;5037801;28;19950;-87
2022/12/28 12:21:55;;;;;;;;;;;21.10;37.50;;;;;;5040522;28;19949;-88
2022/12/28 12:24:42;;;;;;;;;;;21.90;35.90;;;;;;5044714;28;19949;-87
2022/12/28 12:27:13;;;;;;;;;;;22.30;35.60;;;;;;5052111;28;19951;-87
2022/12/28 12:29:41;;;;;;;;;;;22.80;34.30;;;;;;5050478;28;20011;-87
2022/12/28 12:32:13;;;;;;;;;;;22.90;33.60;;;;;;5039984;28;19951;-87
2022/12/28 12:34:43;;;;;;;;;;;22.90;33.70;;;;;;5034658;28;19949;-87
2022/12/28 12:37:27;;;;;;;;;;;21.70;34.30;;;;;;5040018;28;19947;-87
2022/12/28 12:40:10;;;;;;;;;;;20.50;36.60;;;;;;5047849;28;20160;-87
2022/12/28 12:42:51;;;;;;;;;;;20.20;37.90;;;;;;5037057;28;20023;-87
2022/12/28 12:45:35;;;;;;;;;;;19.30;40.10;;;;;;5039568;28;19952;-87
2022/12/28 12:48:33;;;;;;;;;;;18.70;41.10;;;;;;5047273;28;20007;-87
2022/12/28 12:51:12;;;;;;;;;;;19.90;39.60;;;;;;5002997;28;19948;-87
2022/12/28 12:54:13;;;;;;;;;;;20.50;38.50;;;;;;5051105;28;20426;-87
2022/12/28 12:56:48;;;;;;;;;;;21.20;36.50;;;;;;4958438;28;19956;-88
2022/12/28 12:59:32;;;;;;;;;;;22.00;34.90;;;;;;5020457;28;19954;-87
2022/12/28 13:02:16;;;;;;;;;;;22.60;34.10;;;;;;5048479;28;20037;-87
2022/12/28 13:04:44;;;;;;;;;;;23.00;34.20;;;;;;5052914;28;19980;-87
2022/12/28 13:07:21;;;;;;;;;;;22.30;35.30;;;;;;5043578;28;20021;-87
2022/12/28 13:09:47;;;;;;;;;;;20.80;38.10;;;;;;5051671;28;19969;-86
2022/12/28 13:12:15;;;;;;;;;;;18.50;42.90;;;;;;5048626;28;19951;-86
2022/12/28 13:14:47;;;;;;;;;;;17.30;45.10;;;;;;5052477;28;19974;-86
2022/12/28 13:17:17;;;;;;;;;;;16.60;47.50;;;;;;5047015;28;19946;-86
2022/12/28 13:19:43;;;;;;;;;;;16.30;48.00;;;;;;5040496;28;19943;-87
2022/12/28 13:22:27;;;;;;;;;;;16.60;47.30;;;;;;5051264;28;19953;-87
2022/12/28 13:24:53;;;;;;;;;;;17.30;45.70;;;;;;5045778;28;19951;-87
2022/12/28 13:27:20;;;;;;;;;;;17.50;45.20;;;;;;5049888;28;19946;-87
2022/12/28 13:29:52;;;;;;;;;;;17.80;44.40;;;;;;5051259;28;19961;-86
2022/12/28 13:32:25;;;;;;;;;;;18.50;44.00;;;;;;5041744;28;19949;-87
2022/12/28 13:34:50;;;;;;;;;;;18.50;42.90;;;;;;5048479;28;19950;-87
2022/12/28 13:37:17;;;;;;;;;;;18.90;42.00;;;;;;5046374;28;19950;-87
2022/12/28 13:39:43;;;;;;;;;;;19.10;41.90;;;;;;5050682;28;19962;-87
2022/12/28 13:42:11;;;;;;;;;;;19.20;41.60;;;;;;5052219;28;19945;-87
2022/12/28 13:44:43;;;;;;;;;;;19.00;42.20;;;;;;5050331;28;19942;-86
2022/12/28 13:47:21;;;;;;;;;;;18.60;42.70;;;;;;5041539;28;19953;-86
2022/12/28 13:50:10;;;;;;;;;;;18.40;44.50;;;;;;5051239;28;19964;-87
2022/12/28 13:52:39;;;;;;;;;;;18.50;43.20;;;;;;5040890;28;20000;-87
2022/12/28 13:55:07;;;;;;;;;;;18.60;43.00;;;;;;5048778;28;19947;-87
2022/12/28 13:57:34;;;;;;;;;;;18.80;42.20;;;;;;5045417;28;19950;-87
2022/12/28 14:00:00;;;;;;;;;;;19.10;42.20;;;;;;5052197;28;20468;-87
2022/12/28 14:02:27;;;;;;;;;;;19.00;41.70;;;;;;5044895;28;19956;-87
2022/12/28 14:04:53;;;;;;;;;;;19.20;40.80;;;;;;5037519;28;19950;-87
2022/12/28 14:07:19;;;;;;;;;;;18.80;41.60;;;;;;5041970;28;19945;-86
2022/12/28 14:09:45;;;;;;;;;;;18.40;42.50;;;;;;5051602;28;19962;-87
2022/12/28 14:12:12;;;;;;;;;;;18.10;44.20;;;;;;5049424;28;20409;-86
2022/12/28 14:14:38;;;;;;;;;;;18.00;45.00;;;;;;5045263;28;20438;-86
2022/12/28 14:17:04;;;;;;;;;;;18.10;44.50;;;;;;5047940;28;19942;-87
2022/12/28 14:19:30;;;;;;;;;;;18.40;44.40;;;;;;5051088;28;20049;-87
2022/12/28 14:21:55;;;;;;;;;;;18.80;43.70;;;;;;5047399;28;20309;-87
2022/12/28 14:24:21;;;;;;;;;;;18.60;42.50;;;;;;5048681;28;20410;-87
2022/12/28 14:26:51;;;;;;;;;;;18.30;42.50;;;;;;5050087;28;19988;-87
2022/12/28 14:29:22;;;;;;;;;;;17.70;43.60;;;;;;5035424;28;20427;-87
2022/12/28 14:31:53;;;;;;;;;;;16.80;46.70;;;;;;5046991;28;19946;-87
2022/12/28 14:34:20;;;;;;;;;;;16.30;47.70;;;;;;5048726;28;20408;-87
2022/12/28 14:36:50;;;;;;;;;;;15.80;49.20;;;;;;5045065;28;20047;-86
2022/12/28 14:39:25;;;;;;;;;;;15.20;51.30;;;;;;5049659;28;19954;-87
2022/12/28 14:41:51;;;;;;;;;;;14.80;52.00;;;;;;5045158;28;20026;-87
2022/12/28 14:44:23;;;;;;;;;;;14.60;52.50;;;;;;5049786;28;20040;-87
2022/12/28 14:46:53;;;;;;;;;;;14.40;52.90;;;;;;5026076;28;19944;-87
2022/12/28 14:49:27;;;;;;;;;;;14.40;53.00;;;;;;5045502;28;20354;-87
2022/12/28 14:51:56;;;;;;;;;;;14.60;52.80;;;;;;5044832;28;19985;-86
2022/12/28 14:54:22;;;;;;;;;;;14.90;51.90;;;;;;5049296;28;19954;-86
2022/12/28 14:56:51;;;;;;;;;;;15.10;52.10;;;;;;5050055;28;19952;-86
2022/12/28 14:59:23;;;;;;;;;;;15.30;51.70;;;;;;5045999;28;19944;-87
2022/12/28 15:01:48;;;;;;;;;;;15.40;51.10;;;;;;5041846;28;19967;-87
2022/12/28 15:04:24;;;;;;;;;;;15.60;50.60;;;;;;5046696;28;20406;-87